createdAt,value
2023-05-22T00:00:28.974Z,1006.17
2023-05-22T00:01:28.983Z,1006.15
2023-05-22T00:02:29.096Z,1006.19
2023-05-22T00:03:29.066Z,1006.15
2023-05-22T00:04:28.996Z,1006.18
2023-05-22T00:05:29.006Z,1006.13
2023-05-22T00:06:28.951Z,1006.14
2023-05-22T00:07:28.946Z,1006.11
2023-05-22T00:08:29.749Z,1006.14
2023-05-22T00:09:28.936Z,1006.13
2023-05-22T00:10:29.008Z,1006.12
2023-05-22T00:11:28.938Z,1006.11
2023-05-22T00:12:28.940Z,1006.10
2023-05-22T00:13:28.940Z,1006.06
2023-05-22T00:14:28.934Z,1006.10
2023-05-22T00:15:28.914Z,1006.08
2023-05-22T00:16:28.959Z,1006.05
2023-05-22T00:17:28.933Z,1006.06
2023-05-22T00:18:28.903Z,1006.06
2023-05-22T00:19:28.938Z,1006.03
2023-05-22T00:20:28.900Z,1006.05
2023-05-22T00:21:28.896Z,1006.05
2023-05-22T00:22:28.915Z,1006.04
2023-05-22T00:23:28.907Z,1006.03
2023-05-22T00:24:28.919Z,1006.03
2023-05-22T00:25:28.886Z,1006.02
2023-05-22T00:26:28.906Z,1006.02
2023-05-22T00:27:28.873Z,1006.02
2023-05-22T00:28:28.879Z,1005.99
2023-05-22T00:29:28.870Z,1006.02
2023-05-22T00:30:28.858Z,1006.01
2023-05-22T00:31:28.882Z,1005.97
2023-05-22T00:32:28.964Z,1005.97
2023-05-22T00:33:28.864Z,1005.97
2023-05-22T00:34:28.909Z,1005.97
2023-05-22T00:35:28.841Z,1005.97
2023-05-22T00:36:28.857Z,1005.98
2023-05-22T00:37:30.914Z,1005.97
2023-05-22T00:38:28.830Z,1006.01
2023-05-22T00:39:28.844Z,1006.01
2023-05-22T00:40:28.836Z,1005.99
2023-05-22T00:41:28.828Z,1005.99
2023-05-22T00:42:28.834Z,1005.96
2023-05-22T00:43:28.843Z,1005.94
2023-05-22T00:44:28.802Z,1005.94
2023-05-22T00:45:28.833Z,1005.94
2023-05-22T00:46:28.953Z,1005.92
2023-05-22T00:47:28.855Z,1005.95
2023-05-22T00:48:28.826Z,1005.94
2023-05-22T00:49:28.822Z,1005.94
2023-05-22T00:50:28.860Z,1005.98
2023-05-22T00:51:28.806Z,1005.96
2023-05-22T00:52:28.799Z,1005.97
2023-05-22T00:53:28.785Z,1005.98
2023-05-22T00:54:28.793Z,1005.94
2023-05-22T00:55:28.767Z,1005.97
2023-05-22T00:56:28.764Z,1005.97
2023-05-22T00:57:28.751Z,1005.99
2023-05-22T00:58:28.772Z,1005.99
2023-05-22T00:59:28.763Z,1005.98
2023-05-22T01:00:28.761Z,1005.99
2023-05-22T01:01:28.760Z,1006.00
2023-05-22T01:02:28.803Z,1005.98
2023-05-22T01:03:28.834Z,1006.00
2023-05-22T01:04:28.733Z,1005.99
2023-05-22T01:05:28.732Z,1006.06
2023-05-22T01:06:28.745Z,1006.03
2023-05-22T01:07:28.722Z,1006.00
2023-05-22T01:08:28.760Z,1006.05
2023-05-22T01:09:28.736Z,1006.04
2023-05-22T01:10:28.740Z,1006.02
2023-05-22T01:11:28.697Z,1006.04
2023-05-22T01:12:28.709Z,1006.04
2023-05-22T01:13:28.697Z,1006.00
2023-05-22T01:14:28.692Z,1006.02
2023-05-22T01:15:28.725Z,1006.04
2023-05-22T01:16:28.713Z,1006.05
2023-05-22T01:17:28.771Z,1006.03
2023-05-22T01:18:28.686Z,1006.06
2023-05-22T01:19:28.742Z,1006.01
2023-05-22T01:20:28.667Z,1006.00
2023-05-22T01:21:28.663Z,1005.95
2023-05-22T01:22:28.652Z,1005.96
2023-05-22T01:23:28.655Z,1006.00
2023-05-22T01:24:28.663Z,1006.03
2023-05-22T01:25:28.631Z,1006.03
2023-05-22T01:26:28.646Z,1006.01
2023-05-22T01:27:28.619Z,1006.01
2023-05-22T01:28:28.617Z,1006.01
2023-05-22T01:29:28.635Z,1006.00
2023-05-22T01:30:28.627Z,1006.03
2023-05-22T01:31:28.644Z,1006.00
2023-05-22T01:32:28.679Z,1006.03
2023-05-22T01:33:28.718Z,1006.01
2023-05-22T01:34:28.627Z,1006.04
2023-05-22T01:35:28.593Z,1006.04
2023-05-22T01:36:28.613Z,1006.02
2023-05-22T01:37:28.601Z,1006.00
2023-05-22T01:38:28.588Z,1005.96
2023-05-22T01:39:28.583Z,1005.99
2023-05-22T01:40:28.598Z,1006.01
2023-05-22T01:41:28.593Z,1006.04
2023-05-22T01:42:28.582Z,1005.98
2023-05-22T01:43:28.559Z,1006.02
2023-05-22T01:44:28.555Z,1005.98
2023-05-22T01:45:49.614Z,1005.98
2023-05-22T01:46:28.618Z,1005.98
2023-05-22T01:47:28.556Z,1005.98
2023-05-22T01:48:28.548Z,1005.98
2023-05-22T01:49:28.573Z,1006.01
2023-05-22T01:50:49.558Z,1005.97
2023-05-22T01:51:28.528Z,1006.00
2023-05-22T01:52:28.551Z,1005.95
2023-05-22T01:53:28.535Z,1005.98
2023-05-22T01:54:28.512Z,1005.98
2023-05-22T01:55:28.534Z,1005.97
2023-05-22T01:56:28.529Z,1006.00
2023-05-22T01:57:28.519Z,1005.98
2023-05-22T01:58:28.505Z,1005.96
2023-05-22T01:59:28.500Z,1006.01
2023-05-22T02:00:28.566Z,1005.97
2023-05-22T02:01:28.564Z,1006.00
2023-05-22T02:02:28.623Z,1005.96
2023-05-22T02:03:28.607Z,1005.98
2023-05-22T02:04:28.473Z,1005.98
2023-05-22T02:05:28.496Z,1005.99
2023-05-22T02:06:28.498Z,1006.02
2023-05-22T02:07:28.484Z,1006.03
2023-05-22T02:08:28.456Z,1006.03
2023-05-22T02:09:28.478Z,1006.07
2023-05-22T02:10:28.505Z,1006.05
2023-05-22T02:11:28.486Z,1006.04
2023-05-22T02:12:28.461Z,1006.05
2023-05-22T02:13:28.438Z,1006.05
2023-05-22T02:14:28.444Z,1006.06
2023-05-22T02:15:28.484Z,1006.04
2023-05-22T02:16:28.424Z,1006.01
2023-05-22T02:17:28.492Z,1006.03
2023-05-22T02:18:28.454Z,1006.00
2023-05-22T02:19:28.440Z,1006.00
2023-05-22T02:20:28.423Z,1005.99
2023-05-22T02:21:28.419Z,1005.96
2023-05-22T02:22:28.400Z,1005.97
2023-05-22T02:23:28.406Z,1005.97
2023-05-22T02:24:28.420Z,1005.96
2023-05-22T02:25:28.396Z,1005.97
2023-05-22T02:26:28.406Z,1005.99
2023-05-22T02:27:28.411Z,1005.95
2023-05-22T02:28:28.380Z,1005.95
2023-05-22T02:29:28.373Z,1005.93
2023-05-22T02:30:28.366Z,1005.95
2023-05-22T02:31:28.434Z,1005.94
2023-05-22T02:32:28.475Z,1005.90
2023-05-22T02:33:28.387Z,1005.90
2023-05-22T02:34:28.418Z,1005.89
2023-05-22T02:35:28.353Z,1005.88
2023-05-22T02:36:28.379Z,1005.89
2023-05-22T02:37:28.342Z,1005.88
2023-05-22T02:38:28.343Z,1005.87
2023-05-22T02:39:28.351Z,1005.86
2023-05-22T02:40:28.352Z,1005.84
2023-05-22T02:41:28.325Z,1005.85
2023-05-22T02:42:28.328Z,1005.80
2023-05-22T02:43:28.305Z,1005.81
2023-05-22T02:44:28.309Z,1005.82
2023-05-22T02:45:28.328Z,1005.81
2023-05-22T02:46:28.343Z,1005.79
2023-05-22T02:47:28.397Z,1005.79
2023-05-22T02:48:28.299Z,1005.78
2023-05-22T02:49:28.296Z,1005.82
2023-05-22T02:50:28.284Z,1005.80
2023-05-22T02:51:28.302Z,1005.81
2023-05-22T02:52:28.385Z,1005.79
2023-05-22T02:53:28.279Z,1005.80
2023-05-22T02:54:28.291Z,1005.76
2023-05-22T02:55:28.258Z,1005.77
2023-05-22T02:56:28.265Z,1005.74
2023-05-22T02:57:28.265Z,1005.75
2023-05-22T02:58:28.263Z,1005.73
2023-05-22T02:59:28.244Z,1005.72
2023-05-22T03:00:28.237Z,1005.73
2023-05-22T03:01:28.277Z,1005.76
2023-05-22T03:02:28.337Z,1005.76
2023-05-22T03:03:28.314Z,1005.79
2023-05-22T03:04:28.220Z,1005.73
2023-05-22T03:05:28.217Z,1005.77
2023-05-22T03:06:28.236Z,1005.78
2023-05-22T03:07:28.229Z,1005.77
2023-05-22T03:08:28.323Z,1005.76
2023-05-22T03:09:28.214Z,1005.80
2023-05-22T03:10:28.275Z,1005.75
2023-05-22T03:11:28.190Z,1005.77
2023-05-22T03:12:28.200Z,1005.76
2023-05-22T03:13:28.173Z,1005.77
2023-05-22T03:14:28.186Z,1005.75
2023-05-22T03:15:28.170Z,1005.78
2023-05-22T03:16:28.213Z,1005.80
2023-05-22T03:17:28.237Z,1005.79
2023-05-22T03:18:28.165Z,1005.76
2023-05-22T03:19:28.270Z,1005.77
2023-05-22T03:20:28.148Z,1005.76
2023-05-22T03:21:28.147Z,1005.75
2023-05-22T03:22:28.140Z,1005.77
2023-05-22T03:23:28.155Z,1005.78
2023-05-22T03:24:28.138Z,1005.76
2023-05-22T03:25:28.137Z,1005.78
2023-05-22T03:26:28.145Z,1005.78
2023-05-22T03:27:28.121Z,1005.80
2023-05-22T03:28:28.146Z,1005.76
2023-05-22T03:29:28.128Z,1005.79
2023-05-22T03:30:28.164Z,1005.81
2023-05-22T03:31:28.102Z,1005.80
2023-05-22T03:32:28.157Z,1005.81
2023-05-22T03:33:28.126Z,1005.82
2023-05-22T03:34:28.096Z,1005.79
2023-05-22T03:35:28.116Z,1005.79
2023-05-22T03:36:28.760Z,1005.86
2023-05-22T03:37:28.074Z,1005.80
2023-05-22T03:38:28.096Z,1005.81
2023-05-22T03:39:28.079Z,1005.86
2023-05-22T03:40:28.090Z,1005.85
2023-05-22T03:41:28.066Z,1005.87
2023-05-22T03:42:28.075Z,1005.84
2023-05-22T03:43:28.070Z,1005.85
2023-05-22T03:46:12.596Z,1005.86
2023-05-22T03:47:12.537Z,1005.87
2023-05-22T03:48:12.527Z,1005.87
2023-05-22T03:49:12.516Z,1005.87
2023-05-22T03:50:12.535Z,1005.86
2023-05-22T03:51:12.514Z,1005.83
2023-05-22T03:52:12.512Z,1005.86
2023-05-22T03:53:12.499Z,1005.85
2023-05-22T03:54:12.502Z,1005.87
2023-05-22T03:55:12.492Z,1005.85
2023-05-22T03:56:12.487Z,1005.83
2023-05-22T03:57:12.489Z,1005.83
2023-05-22T03:58:12.471Z,1005.82
2023-05-22T03:59:12.481Z,1005.82
2023-05-22T04:00:12.521Z,1005.83
2023-05-22T04:01:12.472Z,1005.78
2023-05-22T04:02:12.529Z,1005.81
2023-05-22T04:03:12.572Z,1005.84
2023-05-22T04:04:12.454Z,1005.84
2023-05-22T04:05:12.513Z,1005.82
2023-05-22T04:06:12.450Z,1005.85
2023-05-22T04:07:12.435Z,1005.85
2023-05-22T04:08:12.423Z,1005.92
2023-05-22T04:09:12.426Z,1005.90
2023-05-22T04:10:12.426Z,1005.89
2023-05-22T04:11:12.421Z,1005.91
2023-05-22T04:12:12.421Z,1005.93
2023-05-22T04:13:12.407Z,1005.94
2023-05-22T04:14:12.424Z,1005.92
2023-05-22T04:15:12.398Z,1005.91
2023-05-22T04:16:12.446Z,1005.95
2023-05-22T04:17:12.388Z,1005.97
2023-05-22T04:18:12.483Z,1005.99
2023-05-22T04:19:12.441Z,1006.00
2023-05-22T04:20:12.380Z,1006.01
2023-05-22T04:21:12.375Z,1005.97
2023-05-22T04:22:12.362Z,1005.96
2023-05-22T04:23:12.365Z,1005.96
2023-05-22T04:24:12.379Z,1006.02
2023-05-22T04:25:12.352Z,1006.00
2023-05-22T04:26:12.359Z,1005.99
2023-05-22T04:27:12.351Z,1006.02
2023-05-22T04:28:12.339Z,1006.02
2023-05-22T04:29:12.332Z,1006.04
2023-05-22T04:30:12.341Z,1006.02
2023-05-22T04:31:12.391Z,1006.07
2023-05-22T04:32:12.320Z,1006.07
2023-05-22T04:33:12.389Z,1006.09
2023-05-22T04:34:12.318Z,1006.15
2023-05-22T04:35:12.359Z,1006.12
2023-05-22T04:36:12.670Z,1006.13
2023-05-22T04:37:33.314Z,1006.11
2023-05-22T04:38:14.342Z,1006.17
2023-05-22T04:39:12.328Z,1006.13
2023-05-22T04:40:12.317Z,1006.20
2023-05-22T04:41:12.285Z,1006.20
2023-05-22T04:42:12.297Z,1006.21
2023-05-22T04:43:12.291Z,1006.25
2023-05-22T04:44:14.380Z,1006.25
2023-05-22T04:45:12.272Z,1006.22
2023-05-22T04:46:12.448Z,1006.27
2023-05-22T04:47:12.331Z,1006.24
2023-05-22T04:48:12.258Z,1006.28
2023-05-22T04:49:12.302Z,1006.30
2023-05-22T04:50:12.280Z,1006.29
2023-05-22T04:51:12.264Z,1006.26
2023-05-22T04:52:12.233Z,1006.29
2023-05-22T04:53:12.234Z,1006.31
2023-05-22T04:54:12.226Z,1006.29
2023-05-22T04:55:12.246Z,1006.29
2023-05-22T04:56:14.612Z,1006.30
2023-05-22T04:57:12.217Z,1006.35
2023-05-22T04:58:12.216Z,1006.32
2023-05-22T04:59:12.216Z,1006.32
2023-05-22T05:00:12.196Z,1006.32
2023-05-22T05:01:12.239Z,1006.32
2023-05-22T05:02:12.202Z,1006.31
2023-05-22T05:03:12.262Z,1006.34
2023-05-22T05:04:12.253Z,1006.34
2023-05-22T05:05:12.181Z,1006.34
2023-05-22T05:06:12.172Z,1006.37
2023-05-22T05:07:12.164Z,1006.39
2023-05-22T05:08:12.166Z,1006.38
2023-05-22T05:09:12.162Z,1006.35
2023-05-22T05:10:12.172Z,1006.36
2023-05-22T05:11:12.153Z,1006.37
2023-05-22T05:12:12.145Z,1006.37
2023-05-22T05:13:12.143Z,1006.39
2023-05-22T05:14:12.141Z,1006.42
2023-05-22T05:15:12.153Z,1006.37
2023-05-22T05:16:12.198Z,1006.36
2023-05-22T05:17:12.123Z,1006.36
2023-05-22T05:18:12.193Z,1006.35
2023-05-22T05:19:12.176Z,1006.36
2023-05-22T05:20:12.113Z,1006.38
2023-05-22T05:21:12.109Z,1006.41
2023-05-22T05:22:12.101Z,1006.42
2023-05-22T05:23:12.110Z,1006.39
2023-05-22T05:24:12.088Z,1006.43
2023-05-22T05:25:12.086Z,1006.43
2023-05-22T05:26:12.079Z,1006.40
2023-05-22T05:27:12.076Z,1006.41
2023-05-22T05:28:12.091Z,1006.39
2023-05-22T05:29:12.092Z,1006.38
2023-05-22T05:30:12.069Z,1006.39
2023-05-22T05:31:12.070Z,1006.40
2023-05-22T05:32:12.092Z,1006.39
2023-05-22T05:33:12.148Z,1006.42
2023-05-22T05:34:12.052Z,1006.38
2023-05-22T05:35:12.043Z,1006.38
2023-05-22T05:36:12.042Z,1006.36
2023-05-22T05:37:12.037Z,1006.37
2023-05-22T05:38:12.040Z,1006.36
2023-05-22T05:39:12.046Z,1006.38
2023-05-22T05:40:12.028Z,1006.38
2023-05-22T05:41:12.058Z,1006.37
2023-05-22T05:42:12.029Z,1006.38
2023-05-22T05:43:12.009Z,1006.37
2023-05-22T05:44:12.020Z,1006.37
2023-05-22T05:45:11.997Z,1006.42
2023-05-22T05:46:12.092Z,1006.39
2023-05-22T05:47:12.009Z,1006.39
2023-05-22T05:48:12.202Z,1006.39
2023-05-22T05:49:12.016Z,1006.43
2023-05-22T05:50:12.073Z,1006.43
2023-05-22T05:51:12.007Z,1006.39
2023-05-22T05:52:12.016Z,1006.41
2023-05-22T05:53:11.970Z,1006.40
2023-05-22T05:54:11.984Z,1006.43
2023-05-22T05:55:11.987Z,1006.48
2023-05-22T05:56:11.985Z,1006.47
2023-05-22T05:57:11.957Z,1006.47
2023-05-22T05:58:11.976Z,1006.47
2023-05-22T05:59:11.961Z,1006.46
2023-05-22T06:00:11.957Z,1006.49
2023-05-22T06:01:11.955Z,1006.51
2023-05-22T06:02:11.998Z,1006.53
2023-05-22T06:03:12.067Z,1006.56
2023-05-22T06:04:11.934Z,1006.50
2023-05-22T06:05:11.995Z,1006.54
2023-05-22T06:06:11.963Z,1006.56
2023-05-22T06:07:11.936Z,1006.54
2023-05-22T06:08:11.929Z,1006.56
2023-05-22T06:09:11.911Z,1006.57
2023-05-22T06:10:11.930Z,1006.56
2023-05-22T06:11:11.906Z,1006.60
2023-05-22T06:12:11.926Z,1006.59
2023-05-22T06:13:11.916Z,1006.58
2023-05-22T06:14:11.898Z,1006.59
2023-05-22T06:15:11.885Z,1006.60
2023-05-22T06:16:11.931Z,1006.58
2023-05-22T06:17:11.867Z,1006.58
2023-05-22T06:18:11.999Z,1006.57
2023-05-22T06:19:11.939Z,1006.59
2023-05-22T06:20:11.907Z,1006.58
2023-05-22T06:21:11.875Z,1006.57
2023-05-22T06:22:11.897Z,1006.58
2023-05-22T06:23:11.869Z,1006.62
2023-05-22T06:24:11.891Z,1006.58
2023-05-22T06:25:11.850Z,1006.60
2023-05-22T06:26:11.844Z,1006.61
2023-05-22T06:27:11.866Z,1006.62
2023-05-22T06:28:11.846Z,1006.61
2023-05-22T06:29:11.833Z,1006.65
2023-05-22T06:30:11.852Z,1006.63
2023-05-22T06:31:11.818Z,1006.64
2023-05-22T06:32:11.889Z,1006.65
2023-05-22T06:33:11.869Z,1006.67
2023-05-22T06:34:11.903Z,1006.62
2023-05-22T06:35:11.879Z,1006.66
2023-05-22T06:36:11.812Z,1006.69
2023-05-22T06:37:11.801Z,1006.65
2023-05-22T06:38:11.794Z,1006.70
2023-05-22T06:39:11.819Z,1006.70
2023-05-22T06:40:11.793Z,1006.71
2023-05-22T06:41:11.816Z,1006.73
2023-05-22T06:42:11.789Z,1006.72
2023-05-22T06:43:11.782Z,1006.73
2023-05-22T06:44:11.781Z,1006.73
2023-05-22T06:45:11.796Z,1006.76
2023-05-22T06:46:11.805Z,1006.73
2023-05-22T06:47:11.773Z,1006.75
2023-05-22T06:48:11.773Z,1006.76
2023-05-22T06:49:11.767Z,1006.78
2023-05-22T06:50:11.759Z,1006.79
2023-05-22T06:51:11.821Z,1006.78
2023-05-22T06:52:11.756Z,1006.76
2023-05-22T06:53:11.745Z,1006.76
2023-05-22T06:54:11.740Z,1006.78
2023-05-22T06:55:11.749Z,1006.80
2023-05-22T06:56:11.738Z,1006.79
2023-05-22T06:57:11.743Z,1006.78
2023-05-22T06:58:11.752Z,1006.80
2023-05-22T06:59:11.729Z,1006.82
2023-05-22T07:00:11.732Z,1006.82
2023-05-22T07:01:11.736Z,1006.84
2023-05-22T07:02:11.717Z,1006.84
2023-05-22T07:03:11.738Z,1006.89
2023-05-22T07:04:11.715Z,1006.86
2023-05-22T07:05:11.709Z,1006.89
2023-05-22T07:06:11.800Z,1006.90
2023-05-22T07:07:11.707Z,1006.87
2023-05-22T07:08:11.688Z,1006.93
2023-05-22T07:09:11.697Z,1006.92
2023-05-22T07:10:11.688Z,1006.93
2023-05-22T07:11:11.683Z,1006.93
2023-05-22T07:12:11.677Z,1006.95
2023-05-22T07:13:11.675Z,1006.94
2023-05-22T07:14:11.676Z,1006.93
2023-05-22T07:15:11.665Z,1006.94
2023-05-22T07:16:11.707Z,1006.97
2023-05-22T07:17:11.663Z,1006.96
2023-05-22T07:18:11.704Z,1006.95
2023-05-22T07:19:11.712Z,1007.00
2023-05-22T07:20:11.653Z,1007.02
2023-05-22T07:21:11.670Z,1007.00
2023-05-22T07:22:11.646Z,1007.03
2023-05-22T07:23:11.651Z,1006.99
2023-05-22T07:24:11.655Z,1007.03
2023-05-22T07:25:11.640Z,1007.03
2023-05-22T07:26:11.721Z,1007.03
2023-05-22T07:27:11.632Z,1007.05
2023-05-22T07:28:11.642Z,1007.08
2023-05-22T07:29:11.615Z,1007.03
2023-05-22T07:30:11.626Z,1007.07
2023-05-22T07:31:11.637Z,1007.06
2023-05-22T07:32:11.611Z,1007.09
2023-05-22T07:33:11.708Z,1007.06
2023-05-22T07:34:11.620Z,1007.08
2023-05-22T07:35:11.610Z,1007.11
2023-05-22T07:36:11.601Z,1007.11
2023-05-22T07:37:11.598Z,1007.06
2023-05-22T07:38:11.596Z,1007.06
2023-05-22T07:39:11.596Z,1007.04
2023-05-22T07:40:11.590Z,1007.05
2023-05-22T07:41:11.583Z,1007.07
2023-05-22T07:42:11.578Z,1007.07
2023-05-22T07:43:11.575Z,1007.09
2023-05-22T07:44:11.573Z,1007.07
2023-05-22T07:45:11.569Z,1007.08
2023-05-22T07:46:11.753Z,1007.12
2023-05-22T07:47:11.568Z,1007.13
2023-05-22T07:48:11.617Z,1007.13
2023-05-22T07:49:11.560Z,1007.12
2023-05-22T07:50:11.551Z,1007.14
2023-05-22T07:51:11.547Z,1007.12
2023-05-22T07:52:11.552Z,1007.15
2023-05-22T07:53:11.539Z,1007.14
2023-05-22T07:54:11.536Z,1007.15
2023-05-22T07:55:11.526Z,1007.17
2023-05-22T07:56:11.531Z,1007.17
2023-05-22T07:57:11.547Z,1007.20
2023-05-22T07:58:11.648Z,1007.20
2023-05-22T07:59:11.517Z,1007.22
2023-05-22T08:00:11.552Z,1007.19
2023-05-22T08:01:11.520Z,1007.19
2023-05-22T08:02:11.567Z,1007.21
2023-05-22T08:03:11.568Z,1007.18
2023-05-22T08:04:11.658Z,1007.22
2023-05-22T08:05:11.547Z,1007.26
2023-05-22T08:06:11.500Z,1007.25
2023-05-22T08:07:11.493Z,1007.21
2023-05-22T08:08:11.486Z,1007.24
2023-05-22T08:09:11.488Z,1007.27
2023-05-22T08:10:11.498Z,1007.27
2023-05-22T08:11:11.497Z,1007.26
2023-05-22T08:12:11.492Z,1007.25
2023-05-22T08:13:11.473Z,1007.20
2023-05-22T08:14:11.552Z,1007.21
2023-05-22T08:15:11.473Z,1007.24
2023-05-22T08:16:11.464Z,1007.21
2023-05-22T08:17:11.510Z,1007.24
2023-05-22T08:18:11.508Z,1007.23
2023-05-22T08:19:11.512Z,1007.26
2023-05-22T08:20:11.639Z,1007.29
2023-05-22T08:21:11.442Z,1007.29
2023-05-22T08:22:11.441Z,1007.28
2023-05-22T08:23:11.505Z,1007.29
2023-05-22T08:24:11.452Z,1007.32
2023-05-22T08:25:11.439Z,1007.27
2023-05-22T08:26:11.453Z,1007.22
2023-05-22T08:27:11.431Z,1007.24
2023-05-22T08:28:11.424Z,1007.18
2023-05-22T08:29:11.422Z,1007.21
2023-05-22T08:30:11.458Z,1007.21
2023-05-22T08:31:11.471Z,1007.12
2023-05-22T08:32:11.423Z,1007.19
2023-05-22T08:33:11.437Z,1007.16
2023-05-22T08:34:11.417Z,1007.11
2023-05-22T08:35:11.413Z,1007.13
2023-05-22T08:36:11.419Z,1007.08
2023-05-22T08:37:11.405Z,1007.12
2023-05-22T08:38:11.404Z,1007.09
2023-05-22T08:39:11.401Z,1007.11
2023-05-22T08:40:11.403Z,1007.10
2023-05-22T08:41:11.457Z,1007.10
2023-05-22T08:42:11.392Z,1007.15
2023-05-22T08:43:11.413Z,1007.20
2023-05-22T08:44:11.394Z,1007.14
2023-05-22T08:45:11.402Z,1007.16
2023-05-22T08:46:11.410Z,1007.18
2023-05-22T08:47:11.471Z,1007.11
2023-05-22T08:48:11.376Z,1007.11
2023-05-22T08:49:11.379Z,1007.14
2023-05-22T08:50:11.381Z,1007.12
2023-05-22T08:51:11.379Z,1007.16
2023-05-22T08:52:11.384Z,1007.17
2023-05-22T08:53:11.402Z,1007.15
2023-05-22T08:54:11.379Z,1007.10
2023-05-22T08:55:11.370Z,1007.16
2023-05-22T08:56:11.362Z,1007.15
2023-05-22T08:57:11.373Z,1007.13
2023-05-22T08:58:11.364Z,1007.15
2023-05-22T08:59:11.359Z,1007.18
2023-05-22T09:00:11.369Z,1007.12
2023-05-22T09:01:11.374Z,1007.14
2023-05-22T09:02:11.483Z,1007.10
2023-05-22T09:03:11.446Z,1007.14
2023-05-22T09:04:11.454Z,1007.14
2023-05-22T09:05:11.352Z,1007.15
2023-05-22T09:06:11.346Z,1007.13
2023-05-22T09:07:11.352Z,1007.09
2023-05-22T09:08:19.608Z,1007.09
2023-05-22T09:09:11.355Z,1007.09
2023-05-22T09:10:11.359Z,1007.09
2023-05-22T09:11:11.361Z,1007.12
2023-05-22T09:12:11.390Z,1007.10
2023-05-22T09:13:11.398Z,1007.13
2023-05-22T09:14:11.346Z,1007.14
2023-05-22T09:15:11.355Z,1007.15
2023-05-22T09:16:11.353Z,1007.12
2023-05-22T09:17:11.568Z,1007.06
2023-05-22T09:18:11.373Z,1007.16
2023-05-22T09:19:11.396Z,1007.15
2023-05-22T09:20:11.344Z,1007.14
2023-05-22T09:21:25.698Z,1007.18
2023-05-22T09:22:11.349Z,1007.17
2023-05-22T09:23:11.365Z,1007.15
2023-05-22T09:24:11.343Z,1007.13
2023-05-22T09:25:11.353Z,1007.11
2023-05-22T09:26:11.343Z,1007.19
2023-05-22T09:27:11.361Z,1007.17
2023-05-22T09:28:11.346Z,1007.18
2023-05-22T09:29:11.347Z,1007.22
2023-05-22T09:30:11.345Z,1007.12
2023-05-22T09:31:11.397Z,1007.16
2023-05-22T09:32:11.345Z,1007.12
2023-05-22T09:33:11.353Z,1007.20
2023-05-22T09:34:11.348Z,1007.14
2023-05-22T09:35:11.346Z,1007.16
2023-05-22T09:36:11.346Z,1007.17
2023-05-22T09:37:11.353Z,1007.13
2023-05-22T09:38:12.288Z,1007.15
2023-05-22T09:39:11.363Z,1007.19
2023-05-22T09:40:11.349Z,1007.25
2023-05-22T09:41:11.346Z,1007.19
2023-05-22T09:42:11.362Z,1007.21
2023-05-22T09:43:11.363Z,1007.23
2023-05-22T09:44:11.349Z,1007.22
2023-05-22T09:45:11.359Z,1007.23
2023-05-22T09:46:11.388Z,1007.24
2023-05-22T09:47:11.397Z,1007.23
2023-05-22T09:48:11.355Z,1007.19
2023-05-22T09:49:14.158Z,1007.20
2023-05-22T09:50:11.421Z,1007.20
2023-05-22T09:51:11.366Z,1007.23
2023-05-22T09:52:11.359Z,1007.25
2023-05-22T09:53:11.358Z,1007.20
2023-05-22T09:54:11.362Z,1007.20
2023-05-22T09:55:11.375Z,1007.21
2023-05-22T09:56:11.361Z,1007.26
2023-05-22T09:57:11.382Z,1007.27
2023-05-22T09:58:11.372Z,1007.29
2023-05-22T09:59:11.376Z,1007.28
2023-05-22T10:00:11.399Z,1007.27
2023-05-22T10:01:11.383Z,1007.26
2023-05-22T10:02:11.440Z,1007.28
2023-05-22T10:03:11.404Z,1007.23
2023-05-22T10:04:11.405Z,1007.19
2023-05-22T10:05:11.395Z,1007.29
2023-05-22T10:06:11.390Z,1007.29
2023-05-22T10:07:11.402Z,1007.27
2023-05-22T10:08:11.401Z,1007.29
2023-05-22T10:09:11.390Z,1007.26
2023-05-22T10:10:11.416Z,1007.26
2023-05-22T10:11:11.416Z,1007.24
2023-05-22T10:12:11.418Z,1007.28
2023-05-22T10:13:11.413Z,1007.28
2023-05-22T10:14:11.404Z,1007.29
2023-05-22T10:15:11.431Z,1007.25
2023-05-22T10:16:11.478Z,1007.21
2023-05-22T10:17:11.427Z,1007.19
2023-05-22T10:18:11.480Z,1007.18
2023-05-22T10:19:11.468Z,1007.25
2023-05-22T10:20:11.420Z,1007.25
2023-05-22T10:21:11.430Z,1007.26
2023-05-22T10:22:11.519Z,1007.26
2023-05-22T10:23:11.434Z,1007.23
2023-05-22T10:24:11.440Z,1007.31
2023-05-22T10:25:11.452Z,1007.22
2023-05-22T10:26:11.440Z,1007.27
2023-05-22T10:27:11.446Z,1007.24
2023-05-22T10:28:11.440Z,1007.19
2023-05-22T10:29:11.446Z,1007.20
2023-05-22T10:30:11.485Z,1007.22
2023-05-22T10:31:11.457Z,1007.20
2023-05-22T10:32:11.449Z,1007.15
2023-05-22T10:33:11.527Z,1007.21
2023-05-22T10:34:11.487Z,1007.18
2023-05-22T10:35:11.465Z,1007.24
2023-05-22T10:36:11.470Z,1007.20
2023-05-22T10:37:17.122Z,1007.17
2023-05-22T10:38:11.564Z,1007.21
2023-05-22T10:39:11.468Z,1007.24
2023-05-22T10:40:11.476Z,1007.19
2023-05-22T10:41:11.475Z,1007.19
2023-05-22T10:42:11.486Z,1007.20
2023-05-22T10:43:11.482Z,1007.17
2023-05-22T10:44:11.479Z,1007.18
2023-05-22T10:45:11.479Z,1007.18
2023-05-22T10:46:11.554Z,1007.17
2023-05-22T10:47:11.535Z,1007.19
2023-05-22T10:48:11.481Z,1007.18
2023-05-22T10:49:11.492Z,1007.20
2023-05-22T10:50:11.561Z,1007.17
2023-05-22T10:51:11.494Z,1007.23
2023-05-22T10:52:11.493Z,1007.25
2023-05-22T10:53:11.501Z,1007.23
2023-05-22T10:54:11.575Z,1007.20
2023-05-22T10:55:11.513Z,1007.17
2023-05-22T10:56:11.480Z,1007.15
2023-05-22T10:57:11.491Z,1007.18
2023-05-22T10:58:11.501Z,1007.20
2023-05-22T10:59:11.505Z,1007.17
2023-05-22T11:00:11.488Z,1007.18
2023-05-22T11:01:11.509Z,1007.18
2023-05-22T11:02:11.659Z,1007.16
2023-05-22T11:03:18.006Z,1007.23
2023-05-22T11:04:11.553Z,1007.18
2023-05-22T11:05:11.583Z,1007.22
2023-05-22T11:06:11.494Z,1007.19
2023-05-22T11:07:11.496Z,1007.21
2023-05-22T11:08:11.493Z,1007.19
2023-05-22T11:09:11.502Z,1007.22
2023-05-22T11:10:11.578Z,1007.21
2023-05-22T11:11:11.517Z,1007.20
2023-05-22T11:12:11.497Z,1007.18
2023-05-22T11:13:11.497Z,1007.18
2023-05-22T11:14:11.505Z,1007.16
2023-05-22T11:15:11.492Z,1007.18
2023-05-22T11:16:11.487Z,1007.17
2023-05-22T11:17:11.543Z,1007.15
2023-05-22T11:18:11.615Z,1007.14
2023-05-22T11:19:22.653Z,1007.17
2023-05-22T11:20:11.695Z,1007.15
2023-05-22T11:21:11.507Z,1007.12
2023-05-22T11:22:11.501Z,1007.12
2023-05-22T11:23:11.522Z,1007.13
2023-05-22T11:24:11.518Z,1007.08
2023-05-22T11:25:11.525Z,1007.12
2023-05-22T11:26:11.590Z,1007.11
2023-05-22T11:27:11.501Z,1007.12
2023-05-22T11:28:11.506Z,1007.13
2023-05-22T11:29:11.500Z,1007.13
2023-05-22T11:30:11.506Z,1007.11
2023-05-22T11:31:11.531Z,1007.07
2023-05-22T11:32:11.503Z,1007.13
2023-05-22T11:33:11.552Z,1007.09
2023-05-22T11:34:11.532Z,1007.07
2023-05-22T11:35:11.505Z,1007.07
2023-05-22T11:36:11.512Z,1007.05
2023-05-22T11:37:11.498Z,1007.01
2023-05-22T11:38:11.540Z,1007.04
2023-05-22T11:39:11.505Z,1007.03
2023-05-22T11:40:11.501Z,1007.03
2023-05-22T11:41:11.494Z,1006.99
2023-05-22T11:42:11.602Z,1006.95
2023-05-22T11:43:11.528Z,1006.97
2023-05-22T11:44:11.506Z,1006.97
2023-05-22T11:45:11.509Z,1006.99
2023-05-22T11:46:11.533Z,1007.02
2023-05-22T11:47:11.510Z,1007.01
2023-05-22T11:48:12.830Z,1007.03
2023-05-22T11:49:11.511Z,1007.01
2023-05-22T11:50:11.519Z,1006.98
2023-05-22T11:51:11.535Z,1006.92
2023-05-22T11:52:11.515Z,1006.95
2023-05-22T11:53:11.503Z,1006.90
2023-05-22T11:54:11.504Z,1006.93
2023-05-22T11:55:11.519Z,1006.94
2023-05-22T11:56:11.512Z,1006.89
2023-05-22T11:57:11.503Z,1006.87
2023-05-22T11:58:11.611Z,1006.92
2023-05-22T11:59:11.508Z,1006.85
2023-05-22T12:00:11.534Z,1006.82
2023-05-22T12:01:11.514Z,1006.84
2023-05-22T12:02:11.507Z,1006.82
2023-05-22T12:03:11.542Z,1006.86
2023-05-22T12:04:11.638Z,1006.87
2023-05-22T12:05:11.507Z,1006.82
2023-05-22T12:06:11.527Z,1006.79
2023-05-22T12:07:11.508Z,1006.85